Time;durP1;ratioP1;P1;durP2;ratioP2;P2;SDS_P1;SDS_P2;PMS_P1;PMS_P2;Temp;Humidity;BMP_temperature;BMP_pressure;BME280_temperature;BME280_humidity;BME280_pressure;Samples;Min_cycle;Max_cycle;Signal;HPM_P1;HPM_P2
2021/12/07 00:00:23;;;;;;;15.85;3.88;;;7.60;99.90;;;;;;5073101;28;20100;-73
2021/12/07 00:02:49;;;;;;;11.82;3.50;;;7.50;99.90;;;;;;5073611;28;20025;-73
2021/12/07 00:05:16;;;;;;;14.25;4.07;;;7.50;99.90;;;;;;5073400;28;20028;-73
2021/12/07 00:07:44;;;;;;;15.52;4.03;;;7.60;99.90;;;;;;5073042;28;20020;-72
2021/12/07 00:10:11;;;;;;;16.17;4.32;;;7.60;99.90;;;;;;5072987;28;20488;-73
2021/12/07 00:12:40;;;;;;;13.00;3.47;;;7.60;99.90;;;;;;5073254;28;20032;-73
2021/12/07 00:15:07;;;;;;;15.60;3.60;;;7.50;99.90;;;;;;5073531;28;20377;-72
2021/12/07 00:17:34;;;;;;;17.70;4.28;;;7.60;99.90;;;;;;5072979;28;20021;-73
2021/12/07 00:20:01;;;;;;;13.38;3.50;;;7.60;99.90;;;;;;5055723;28;20496;-73
2021/12/07 00:22:27;;;;;;;21.13;10.55;;;7.50;99.90;;;;;;5053014;28;20036;-72
2021/12/07 00:24:53;;;;;;;16.38;6.15;;;7.50;99.90;;;;;;5052844;28;20031;-72
2021/12/07 00:27:19;;;;;;;15.95;5.88;;;7.50;99.90;;;;;;5053003;28;20476;-72
2021/12/07 00:29:45;;;;;;;14.80;5.60;;;7.50;99.90;;;;;;5052806;28;20028;-72
2021/12/07 00:32:33;;;;;;;16.15;4.03;;;7.50;99.90;;;;;;5053078;28;20075;-73
2021/12/07 00:37:30;;;;;;;12.57;4.82;;;7.50;99.90;;;;;;5052720;28;20428;-72
2021/12/07 00:39:57;;;;;;;20.52;5.03;;;7.50;99.90;;;;;;5052687;28;20029;-72
2021/12/07 00:42:23;;;;;;;14.23;3.80;;;7.50;99.90;;;;;;5052627;28;20032;-72
2021/12/07 00:44:49;;;;;;;12.07;3.58;;;7.50;99.90;;;;;;5052611;28;20025;-73
2021/12/07 00:47:15;;;;;;;10.30;3.22;;;7.50;99.90;;;;;;5053081;28;20079;-73
2021/12/07 00:49:41;;;;;;;10.55;3.45;;;7.40;99.90;;;;;;5052597;28;20024;-72
2021/12/07 00:52:07;;;;;;;11.45;2.80;;;7.40;99.90;;;;;;5052539;28;20017;-72
2021/12/07 00:54:33;;;;;;;10.52;2.97;;;7.40;99.90;;;;;;5052537;28;20074;-73
2021/12/07 00:57:01;;;;;;;10.43;2.80;;;7.40;99.90;;;;;;5052517;28;20082;-73
2021/12/07 00:59:28;;;;;;;11.95;3.03;;;7.40;99.90;;;;;;5034694;28;20030;-71
2021/12/07 01:01:53;;;;;;;12.27;2.75;;;7.40;99.90;;;;;;5052484;28;20103;-72
2021/12/07 01:04:19;;;;;;;8.93;2.88;;;7.50;99.90;;;;;;5056104;28;20049;-72
2021/12/07 01:07:01;;;;;;;11.10;3.22;;;7.40;99.90;;;;;;5056247;28;20675;-73
2021/12/07 01:25:55;;;;;;;11.88;2.75;;;7.30;99.90;;;;;;5055642;28;20102;-73
2021/12/07 01:59:55;;;;;;;9.73;2.40;;;7.30;99.90;;;;;;5055636;28;20072;-72
2021/12/07 02:02:23;;;;;;;12.63;2.85;;;7.20;99.90;;;;;;5055239;28;20028;-73
2021/12/07 02:04:48;;;;;;;13.27;3.15;;;7.20;99.90;;;;;;5054925;28;20025;-73
2021/12/07 02:07:15;;;;;;;12.32;3.38;;;7.20;99.90;;;;;;5055083;28;20079;-73
2021/12/07 02:09:45;;;;;;;8.80;2.75;;;7.10;99.90;;;;;;5054851;28;20456;-72
2021/12/07 02:12:12;;;;;;;12.27;2.50;;;7.10;99.90;;;;;;5054916;28;20388;-72
2021/12/07 02:14:39;;;;;;;11.48;2.30;;;7.10;99.90;;;;;;5054123;28;20021;-73
2021/12/07 02:17:08;;;;;;;9.25;2.38;;;7.20;99.90;;;;;;5054601;28;20036;-73
2021/12/07 02:19:34;;;;;;;8.57;2.55;;;7.20;99.90;;;;;;5054621;28;20053;-72
2021/12/07 02:22:00;;;;;;;8.55;2.22;;;7.20;99.90;;;;;;5054607;28;20048;-73
2021/12/07 02:24:27;;;;;;;8.63;2.45;;;7.20;99.90;;;;;;5054848;28;20037;-73
2021/12/07 02:26:52;;;;;;;6.28;1.98;;;7.20;99.90;;;;;;5054459;28;20028;-72
2021/12/07 02:29:20;;;;;;;8.52;2.10;;;7.30;99.90;;;;;;5054457;28;20021;-73
2021/12/07 02:31:48;;;;;;;13.30;2.78;;;7.30;99.90;;;;;;5054602;28;20045;-72
2021/12/07 02:34:14;;;;;;;7.90;2.10;;;7.20;99.90;;;;;;5054906;28;20048;-73
2021/12/07 02:36:41;;;;;;;9.18;3.08;;;7.00;99.90;;;;;;5054322;28;20074;-72
2021/12/07 02:39:09;;;;;;;5.70;1.90;;;7.00;99.90;;;;;;5054813;28;20013;-72
2021/12/07 02:41:36;;;;;;;4.97;1.85;;;7.00;99.90;;;;;;5054239;28;20102;-73
2021/12/07 02:44:05;;;;;;;8.48;2.83;;;7.00;99.90;;;;;;5054370;28;20021;-72
2021/12/07 02:46:31;;;;;;;10.48;2.45;;;7.00;99.90;;;;;;5054136;28;20029;-73
2021/12/07 02:48:57;;;;;;;9.68;2.15;;;7.00;99.90;;;;;;5054385;28;20358;-72
2021/12/07 02:51:23;;;;;;;6.18;1.90;;;6.90;99.90;;;;;;5054073;28;20461;-73
2021/12/07 02:53:48;;;;;;;6.90;2.65;;;7.00;99.90;;;;;;5054017;28;20025;-72
2021/12/07 02:56:14;;;;;;;8.63;2.63;;;7.00;99.90;;;;;;5053971;28;20052;-73
2021/12/07 02:58:44;;;;;;;8.50;2.38;;;7.00;99.90;;;;;;5054208;28;20354;-73
2021/12/07 03:01:21;;;;;;;12.13;2.95;;;7.00;99.90;;;;;;5054220;28;20055;-72
2021/12/07 03:03:58;;;;;;;8.68;2.55;;;6.90;99.90;;;;;;5054137;28;20511;-73
2021/12/07 03:06:42;;;;;;;9.00;2.75;;;7.00;99.90;;;;;;5053978;28;20382;-73
2021/12/07 03:28:04;;;;;;;8.63;2.15;;;6.90;99.90;;;;;;5053295;28;20604;-73
2021/12/07 03:30:30;;;;;;;7.78;2.55;;;6.80;99.90;;;;;;5053390;28;20021;-73
2021/12/07 03:32:56;;;;;;;7.15;2.10;;;6.90;99.90;;;;;;5053364;28;20040;-72
2021/12/07 03:35:22;;;;;;;8.52;2.60;;;6.90;99.90;;;;;;5053607;28;20017;-73
2021/12/07 03:37:47;;;;;;;15.95;2.83;;;7.00;99.90;;;;;;5053343;28;20103;-72
2021/12/07 03:40:14;;;;;;;10.23;2.80;;;6.80;99.90;;;;;;5053302;28;20025;-73
2021/12/07 03:42:40;;;;;;;7.40;2.22;;;6.80;99.90;;;;;;5053536;28;20048;-72
2021/12/07 03:45:08;;;;;;;7.13;2.35;;;6.90;99.90;;;;;;5053209;28;20033;-73
2021/12/07 03:47:33;;;;;;;7.10;2.28;;;6.90;99.90;;;;;;5053377;28;20021;-73
2021/12/07 03:49:59;;;;;;;9.27;2.45;;;6.90;99.90;;;;;;5053429;28;20071;-73
2021/12/07 03:52:25;;;;;;;11.40;2.97;;;6.90;99.90;;;;;;5053419;28;20161;-72
2021/12/07 03:54:51;;;;;;;10.75;2.83;;;6.90;99.90;;;;;;5053121;28;20477;-74
2021/12/07 03:57:16;;;;;;;11.15;2.88;;;6.90;99.90;;;;;;5053114;28;20029;-72
2021/12/07 03:59:42;;;;;;;7.03;2.28;;;7.00;99.90;;;;;;5053033;28;20473;-72
2021/12/07 04:02:08;;;;;;;11.00;2.50;;;7.00;99.90;;;;;;5053028;28;20112;-73
2021/12/07 04:04:34;;;;;;;10.13;2.60;;;7.00;99.90;;;;;;5053048;28;20052;-72
2021/12/07 04:07:00;;;;;;;8.02;2.47;;;7.00;99.90;;;;;;5052960;28;20378;-73
2021/12/07 04:09:26;;;;;;;10.23;3.00;;;7.10;99.90;;;;;;5052970;28;20070;-73
2021/12/07 04:11:54;;;;;;;11.57;3.70;;;7.10;99.90;;;;;;5052971;28;20017;-73
2021/12/07 04:14:19;;;;;;;8.93;2.63;;;7.00;99.90;;;;;;5052972;28;20025;-73
2021/12/07 04:16:45;;;;;;;12.70;3.25;;;6.90;99.90;;;;;;5053194;28;20032;-74
2021/12/07 04:19:11;;;;;;;8.10;2.80;;;6.90;99.90;;;;;;5052736;28;20045;-71
2021/12/07 04:21:36;;;;;;;12.00;3.67;;;6.90;99.90;;;;;;5052891;28;20029;-73
2021/12/07 04:24:02;;;;;;;7.65;2.67;;;7.00;99.90;;;;;;5052857;28;20056;-72
2021/12/07 04:26:28;;;;;;;9.70;3.38;;;7.00;99.90;;;;;;5052711;28;20445;-73
2021/12/07 04:28:53;;;;;;;9.70;3.10;;;7.00;99.90;;;;;;5052804;28;20024;-72
2021/12/07 04:31:20;;;;;;;8.65;3.10;;;7.00;99.90;;;;;;5053046;28;20108;-74
2021/12/07 04:33:46;;;;;;;11.73;3.28;;;7.00;99.90;;;;;;5034879;28;20057;-73
2021/12/07 04:36:12;;;;;;;11.13;3.15;;;6.90;99.90;;;;;;5052737;28;20099;-73
2021/12/07 04:38:39;;;;;;;14.32;3.03;;;7.00;99.90;;;;;;5055500;28;20412;-73
2021/12/07 04:41:05;;;;;;;10.05;2.60;;;7.00;99.90;;;;;;5056510;28;20025;-73
2021/12/07 04:43:32;;;;;;;12.50;2.95;;;7.00;99.90;;;;;;5056710;28;20025;-72
2021/12/07 04:59:11;;;;;;;10.23;2.40;;;7.10;99.90;;;;;;5056531;28;20027;-73
2021/12/07 05:01:38;;;;;;;10.48;2.60;;;7.10;99.90;;;;;;5056130;28;20025;-72
2021/12/07 05:04:12;;;;;;;10.68;2.40;;;7.00;99.90;;;;;;5056115;28;20014;-72
2021/12/07 05:06:45;;;;;;;12.45;3.03;;;7.10;99.90;;;;;;5056297;28;20453;-72
2021/12/07 05:12:16;;;;;;;10.80;4.20;;;7.10;99.90;;;;;;5056023;28;20036;-72
2021/12/07 05:14:40;;;;;;;15.05;3.35;;;7.00;99.90;;;;;;5055678;28;20029;-73
2021/12/07 05:25:50;;;;;;;12.98;3.90;;;7.00;99.90;;;;;;5056272;28;20040;-73
2021/12/07 05:39:09;;;;;;;11.60;3.65;;;6.90;99.90;;;;;;5055203;28;20024;-72
2021/12/07 05:41:34;;;;;;;13.02;3.92;;;6.90;99.90;;;;;;5055385;28;20375;-72
2021/12/07 05:44:01;;;;;;;10.98;3.33;;;6.90;99.90;;;;;;5055537;28;20071;-73
2021/12/07 05:46:27;;;;;;;10.65;2.83;;;6.90;99.90;;;;;;5055219;28;20020;-73
2021/12/07 05:48:52;;;;;;;12.18;3.70;;;6.90;99.90;;;;;;5054316;28;20443;-72
2021/12/07 05:51:18;;;;;;;9.15;2.83;;;6.90;99.90;;;;;;5055212;28;20025;-72
2021/12/07 05:53:44;;;;;;;11.82;3.42;;;6.90;99.90;;;;;;5055199;28;20029;-73
2021/12/07 05:56:09;;;;;;;16.33;3.17;;;6.90;99.90;;;;;;5055176;28;20103;-72
2021/12/07 05:58:35;;;;;;;11.07;2.95;;;6.90;99.90;;;;;;5055107;28;20240;-73
2021/12/07 06:01:00;;;;;;;11.55;3.28;;;6.90;99.90;;;;;;5055070;28;20103;-73
2021/12/07 06:03:27;;;;;;;11.02;3.50;;;6.90;99.90;;;;;;5037165;28;20457;-72
2021/12/07 06:05:54;;;;;;;9.93;2.30;;;6.90;99.90;;;;;;5055153;28;20036;-73
2021/12/07 06:08:21;;;;;;;16.27;4.03;;;6.90;99.90;;;;;;5054895;28;20095;-71
2021/12/07 06:10:47;;;;;;;8.25;2.65;;;6.90;99.90;;;;;;5054850;28;20057;-72
2021/12/07 06:13:13;;;;;;;11.90;2.83;;;7.00;99.90;;;;;;5054788;28;20049;-73
2021/12/07 06:15:42;;;;;;;15.32;2.90;;;6.90;99.90;;;;;;5054768;28;20052;-72
2021/12/07 06:18:08;;;;;;;11.70;2.78;;;7.00;99.90;;;;;;5054813;28;20440;-73
2021/12/07 06:20:34;;;;;;;11.40;3.65;;;7.00;99.90;;;;;;5054745;28;20105;-73
2021/12/07 06:23:00;;;;;;;11.75;2.88;;;7.00;99.90;;;;;;5054652;28;20028;-73
2021/12/07 06:25:25;;;;;;;12.88;2.70;;;7.00;99.90;;;;;;5054928;28;20029;-72
2021/12/07 06:27:51;;;;;;;13.23;2.42;;;7.00;99.90;;;;;;5054488;28;20431;-72
2021/12/07 06:30:17;;;;;;;9.68;2.63;;;6.90;99.90;;;;;;5054537;28;20029;-72
2021/12/07 06:32:43;;;;;;;7.30;2.70;;;6.90;99.90;;;;;;5054461;28;20024;-72
2021/12/07 06:35:09;;;;;;;16.65;2.72;;;6.90;99.90;;;;;;5054967;28;20035;-72
2021/12/07 06:37:36;;;;;;;10.38;2.30;;;6.90;99.90;;;;;;5054593;28;20028;-73
2021/12/07 06:40:02;;;;;;;8.88;2.97;;;6.90;99.90;;;;;;5054325;28;20025;-73
2021/12/07 06:42:28;;;;;;;13.48;2.60;;;6.90;99.90;;;;;;5054213;28;20028;-72
2021/12/07 06:44:53;;;;;;;12.95;2.78;;;7.00;99.90;;;;;;5054166;28;20037;-72
2021/12/07 06:47:19;;;;;;;10.10;2.80;;;7.00;99.90;;;;;;5054112;28;20017;-72
2021/12/07 06:49:45;;;;;;;12.27;3.50;;;7.00;99.90;;;;;;5054379;28;20025;-73
2021/12/07 06:52:11;;;;;;;14.40;2.80;;;7.10;99.90;;;;;;5054056;28;20058;-72
2021/12/07 06:54:37;;;;;;;13.07;3.42;;;7.10;99.90;;;;;;5054029;28;20049;-72
2021/12/07 06:57:04;;;;;;;13.27;2.40;;;7.10;99.90;;;;;;5053993;28;20481;-72
2021/12/07 06:59:30;;;;;;;11.68;2.30;;;7.20;99.90;;;;;;5053912;28;20025;-73
2021/12/07 07:01:55;;;;;;;13.82;2.60;;;7.20;99.90;;;;;;5053707;28;20021;-73
2021/12/07 07:04:21;;;;;;;14.70;3.15;;;7.30;99.90;;;;;;5054133;28;20420;-73
2021/12/07 07:06:48;;;;;;;18.75;3.22;;;7.30;99.90;;;;;;5053980;28;20025;-72
2021/12/07 07:09:13;;;;;;;16.23;3.17;;;7.30;99.90;;;;;;5053756;28;20389;-72
2021/12/07 07:11:39;;;;;;;13.77;4.07;;;7.40;99.90;;;;;;5053924;28;20025;-73
2021/12/07 07:14:05;;;;;;;12.10;3.17;;;7.40;99.90;;;;;;5054205;28;20021;-73
2021/12/07 07:16:31;;;;;;;14.75;3.75;;;7.40;99.90;;;;;;5053609;28;20106;-72
2021/12/07 07:18:57;;;;;;;14.00;3.33;;;7.40;99.90;;;;;;5053406;28;20053;-73
2021/12/07 07:21:24;;;;;;;14.25;3.97;;;7.50;99.90;;;;;;5053548;28;20545;-72
2021/12/07 07:23:51;;;;;;;17.88;4.05;;;7.50;99.90;;;;;;5053524;28;20033;-72
2021/12/07 07:26:17;;;;;;;16.02;3.53;;;7.50;99.90;;;;;;5053374;28;20524;-73
2021/12/07 07:28:43;;;;;;;23.30;6.63;;;7.50;99.90;;;;;;5053432;28;20029;-72
2021/12/07 07:31:10;;;;;;;17.73;5.05;;;7.60;99.90;;;;;;5053641;28;20025;-73
2021/12/07 07:33:37;;;;;;;17.52;4.50;;;7.60;99.90;;;;;;5053598;28;20469;-71
2021/12/07 07:36:03;;;;;;;13.38;3.47;;;7.60;99.90;;;;;;5053281;28;20021;-72
2021/12/07 07:38:29;;;;;;;15.93;3.40;;;7.70;99.90;;;;;;5035398;28;20476;-73
2021/12/07 07:40:55;;;;;;;15.38;3.63;;;7.70;99.90;;;;;;5053280;28;20060;-72
2021/12/07 07:43:22;;;;;;;15.88;4.65;;;7.80;99.90;;;;;;5053220;28;20068;-72
2021/12/07 07:45:50;;;;;;;15.25;4.53;;;7.80;99.90;;;;;;5053162;28;20017;-72
2021/12/07 07:48:17;;;;;;;23.77;4.10;;;7.90;99.90;;;;;;5053209;28;20024;-73
2021/12/07 07:50:43;;;;;;;20.70;4.30;;;7.90;99.90;;;;;;5053738;28;20404;-72
2021/12/07 07:53:09;;;;;;;33.28;10.82;;;7.90;99.90;;;;;;5053115;28;20028;-73
2021/12/07 07:55:37;;;;;;;17.55;3.83;;;7.90;99.90;;;;;;5053687;28;20024;-73
2021/12/07 07:58:04;;;;;;;14.20;4.15;;;7.90;99.90;;;;;;5053069;28;20025;-73
2021/12/07 08:00:29;;;;;;;14.63;4.00;;;7.90;99.90;;;;;;5052935;28;20542;-72
2021/12/07 08:02:55;;;;;;;16.35;3.38;;;8.00;99.90;;;;;;5053379;28;20108;-73
2021/12/07 08:05:21;;;;;;;18.42;3.97;;;8.00;99.90;;;;;;5053323;28;20031;-72
2021/12/07 08:07:47;;;;;;;14.63;3.92;;;8.00;99.90;;;;;;5052935;28;20029;-73
2021/12/07 08:10:16;;;;;;;16.90;6.60;;;8.10;99.90;;;;;;5053014;28;20021;-72
2021/12/07 08:12:42;;;;;;;12.45;3.58;;;8.10;99.90;;;;;;5054328;28;20071;-72
2021/12/07 08:15:08;;;;;;;19.30;6.22;;;8.10;99.90;;;;;;5057049;28;20029;-73
2021/12/07 08:17:34;;;;;;;14.27;4.18;;;8.20;99.90;;;;;;5057031;28;20044;-72
2021/12/07 08:20:00;;;;;;;14.93;2.92;;;8.20;99.90;;;;;;5056603;28;20442;-73
2021/12/07 08:22:28;;;;;;;14.02;3.15;;;8.20;99.90;;;;;;5056883;28;20111;-72
2021/12/07 08:24:54;;;;;;;20.73;5.38;;;8.30;99.90;;;;;;5056841;28;20025;-72
2021/12/07 08:27:20;;;;;;;18.60;3.90;;;8.30;99.90;;;;;;5056774;28;20029;-72
2021/12/07 08:29:45;;;;;;;17.08;4.68;;;8.40;99.90;;;;;;5056738;28;20028;-73
2021/12/07 08:32:11;;;;;;;16.60;4.25;;;8.50;99.90;;;;;;5056996;28;20385;-73
2021/12/07 08:34:37;;;;;;;27.42;4.55;;;8.50;99.90;;;;;;5056935;28;20021;-73
2021/12/07 08:37:03;;;;;;;23.40;5.22;;;8.60;99.90;;;;;;5056640;28;20032;-73
2021/12/07 08:39:29;;;;;;;18.33;4.60;;;8.60;99.90;;;;;;5056584;28;20393;-72
2021/12/07 08:41:55;;;;;;;11.15;4.10;;;8.70;99.90;;;;;;5056466;28;20036;-72
2021/12/07 08:44:21;;;;;;;16.55;5.35;;;8.80;99.90;;;;;;5056477;28;20021;-72
2021/12/07 08:46:46;;;;;;;19.90;5.75;;;8.80;99.90;;;;;;5056904;28;20035;-73
2021/12/07 08:49:12;;;;;;;15.85;4.95;;;8.80;99.90;;;;;;5056373;28;20021;-73
2021/12/07 08:51:39;;;;;;;19.38;5.28;;;8.90;99.90;;;;;;5056334;28;20017;-72
2021/12/07 08:59:40;;;;;;;21.23;5.57;;;8.90;99.90;;;;;;5056287;28;20089;-73
2021/12/07 09:02:06;;;;;;;21.65;5.40;;;8.90;99.90;;;;;;5038107;28;20029;-73
2021/12/07 09:04:32;;;;;;;23.98;5.05;;;9.00;99.90;;;;;;5056408;28;20083;-73
2021/12/07 09:06:58;;;;;;;16.00;4.35;;;9.00;99.90;;;;;;5056258;28;20385;-73
2021/12/07 09:09:23;;;;;;;26.33;5.43;;;9.00;99.90;;;;;;5056011;28;20060;-73
2021/12/07 09:11:49;;;;;;;27.30;7.22;;;9.10;99.90;;;;;;5056238;28;20053;-73
2021/12/07 09:14:17;;;;;;;30.70;7.97;;;9.10;99.90;;;;;;5055939;28;20529;-73
2021/12/07 09:16:44;;;;;;;34.40;7.13;;;9.10;99.90;;;;;;5055898;28;20021;-72
2021/12/07 09:19:12;;;;;;;43.90;8.32;;;9.20;99.90;;;;;;5055645;28;20115;-72
2021/12/07 09:27:35;;;;;;;16.83;3.90;;;9.30;99.90;;;;;;4590066;28;20080;-74
2021/12/07 09:30:01;;;;;;;23.50;5.10;;;9.40;99.90;;;;;;4996977;28;20030;-73
2021/12/07 09:32:27;;;;;;;18.42;4.10;;;9.40;99.90;;;;;;4996920;28;20066;-74
2021/12/07 09:34:53;;;;;;;23.35;5.65;;;9.40;99.90;;;;;;4996580;28;20037;-72
2021/12/07 09:37:19;;;;;;;24.35;8.93;;;9.40;99.90;;;;;;4996279;28;20030;-76
2021/12/07 09:39:44;;;;;;;20.70;4.60;;;9.50;99.90;;;;;;4978760;28;20389;-73
2021/12/07 09:42:10;;;;;;;17.58;5.60;;;9.50;99.90;;;;;;4996186;28;20470;-74
2021/12/07 09:44:36;;;;;;;21.67;6.25;;;9.50;99.90;;;;;;4996153;28;20026;-74
2021/12/07 09:47:02;;;;;;;28.38;6.38;;;9.50;99.90;;;;;;4996070;28;20466;-74
2021/12/07 09:49:27;;;;;;;22.75;7.10;;;9.60;99.90;;;;;;4996077;28;20030;-74
2021/12/07 09:51:53;;;;;;;21.33;7.13;;;9.60;99.90;;;;;;4996016;28;20037;-75
2021/12/07 09:54:19;;;;;;;22.25;6.80;;;9.70;99.90;;;;;;4995972;28;20030;-74
2021/12/07 09:56:45;;;;;;;23.55;8.70;;;9.70;99.90;;;;;;4995890;28;20081;-74
2021/12/07 09:59:11;;;;;;;20.85;6.00;;;9.70;99.90;;;;;;4995890;28;20394;-76
2021/12/07 10:01:41;;;;;;;18.02;4.72;;;9.70;99.90;;;;;;4995810;28;20026;-76
2021/12/07 10:04:07;;;;;;;27.75;6.55;;;9.70;99.90;;;;;;4995843;28;20041;-75
2021/12/07 10:06:33;;;;;;;19.00;6.03;;;9.80;99.90;;;;;;4996154;28;20057;-76
2021/12/07 10:09:00;;;;;;;17.85;4.90;;;9.90;99.90;;;;;;4995639;28;20038;-74
2021/12/07 10:11:25;;;;;;;19.48;5.38;;;9.90;99.90;;;;;;4977824;28;20466;-73
2021/12/07 10:13:52;;;;;;;19.33;5.32;;;9.90;99.90;;;;;;4995587;28;20049;-74
2021/12/07 10:16:21;;;;;;;22.92;5.35;;;9.90;99.90;;;;;;4995561;28;20105;-75
2021/12/07 10:18:47;;;;;;;18.33;4.95;;;10.00;99.90;;;;;;4978066;28;20029;-73
2021/12/07 10:21:23;;;;;;;17.73;5.15;;;10.00;99.90;;;;;;4995408;28;20027;-76
2021/12/07 10:23:54;;;;;;;17.75;5.20;;;10.00;99.90;;;;;;4995607;28;20045;-72
2021/12/07 10:26:40;;;;;;;24.77;7.05;;;10.10;99.90;;;;;;4995124;28;20050;-75
2021/12/07 10:29:13;;;;;;;20.23;5.20;;;10.00;99.90;;;;;;4995553;28;20023;-76
2021/12/07 10:31:42;;;;;;;19.88;4.80;;;10.00;99.90;;;;;;4995780;28;20126;-74
2021/12/07 10:34:14;;;;;;;23.48;4.65;;;10.00;99.90;;;;;;4995489;28;20027;-76
2021/12/07 10:36:44;;;;;;;20.77;6.18;;;10.10;99.90;;;;;;4994942;28;20080;-74
2021/12/07 10:39:14;;;;;;;24.38;6.85;;;10.10;99.90;;;;;;4995308;28;20093;-73
2021/12/07 10:42:05;;;;;;;24.80;7.05;;;10.10;99.90;;;;;;4995381;28;20034;-76
2021/12/07 10:44:33;;;;;;;23.88;5.63;;;10.10;99.90;;;;;;4995500;28;20037;-75
2021/12/07 10:47:06;;;;;;;23.70;5.10;;;10.10;99.90;;;;;;4995389;28;20031;-77
2021/12/07 10:49:49;;;;;;;19.20;5.40;;;10.10;99.90;;;;;;4995501;28;20022;-76
2021/12/07 10:52:15;;;;;;;17.30;4.80;;;10.10;99.90;;;;;;4995146;28;20061;-75
2021/12/07 10:55:17;;;;;;;25.17;8.95;;;10.10;99.90;;;;;;4994836;28;20070;-76
2021/12/07 10:57:55;;;;;;;16.00;4.22;;;10.20;99.90;;;;;;4990371;28;20034;-73
2021/12/07 11:00:36;;;;;;;19.30;5.13;;;10.10;99.90;;;;;;4994997;28;20065;-74
2021/12/07 11:03:05;;;;;;;20.55;6.00;;;10.20;99.90;;;;;;4994973;28;20022;-73
2021/12/07 11:05:36;;;;;;;20.08;4.82;;;10.20;99.90;;;;;;4994636;28;20482;-76
2021/12/07 11:08:05;;;;;;;19.17;4.53;;;10.30;99.90;;;;;;4994806;28;20089;-76
2021/12/07 11:10:36;;;;;;;14.38;4.95;;;10.30;99.90;;;;;;4977100;28;20081;-73
2021/12/07 11:13:16;;;;;;;18.55;5.03;;;10.30;99.90;;;;;;4994807;28;20034;-75
2021/12/07 11:15:52;;;;;;;30.77;8.02;;;10.30;99.90;;;;;;4994541;28;20026;-75
2021/12/07 11:18:36;;;;;;;25.75;7.97;;;10.30;99.90;;;;;;4995054;28;20049;-76
2021/12/07 11:21:13;;;;;;;15.90;4.40;;;10.30;99.90;;;;;;4994724;28;20095;-73
2021/12/07 11:23:53;;;;;;;21.17;4.82;;;10.40;99.90;;;;;;4994317;28;20034;-75
2021/12/07 11:31:49;;;;;;;17.08;6.05;;;10.30;99.90;;;;;;4994228;28;20117;-75
2021/12/07 11:34:20;;;;;;;17.65;4.10;;;10.40;99.90;;;;;;4994805;28;20049;-72
2021/12/07 11:36:51;;;;;;;19.23;9.18;;;10.30;99.90;;;;;;4994205;28;20023;-74
2021/12/07 11:39:27;;;;;;;18.27;7.20;;;10.30;99.90;;;;;;4976444;28;20045;-74
2021/12/07 11:42:05;;;;;;;13.00;4.63;;;10.30;99.90;;;;;;4994412;28;20022;-74
2021/12/07 11:44:34;;;;;;;17.75;5.45;;;10.40;99.90;;;;;;4994356;28;20061;-75
2021/12/07 11:47:02;;;;;;;14.73;5.00;;;10.40;99.90;;;;;;4992940;28;20065;-75
2021/12/07 11:49:30;;;;;;;17.92;6.50;;;10.40;99.90;;;;;;4994003;28;20034;-73
2021/12/07 11:52:00;;;;;;;13.02;5.57;;;10.40;99.90;;;;;;4994251;28;20497;-77
2021/12/07 11:54:29;;;;;;;17.70;3.00;;;10.40;99.90;;;;;;4994287;28;20018;-75
2021/12/07 11:56:56;;;;;;;14.85;4.97;;;10.40;99.90;;;;;;4994199;28;20494;-76
2021/12/07 11:59:22;;;;;;;11.68;3.65;;;10.30;99.90;;;;;;4993902;28;20030;-75
2021/12/07 12:01:50;;;;;;;12.02;4.25;;;10.40;99.90;;;;;;4994428;28;20026;-76
2021/12/07 12:04:18;;;;;;;8.45;2.25;;;10.40;99.90;;;;;;4994382;28;20114;-76
2021/12/07 12:06:50;;;;;;;10.48;2.85;;;10.40;99.90;;;;;;4994046;28;20033;-74
2021/12/07 12:09:17;;;;;;;9.18;2.55;;;10.40;99.90;;;;;;4994054;28;20421;-75
2021/12/07 12:12:21;;;;;;;13.13;3.65;;;10.40;99.90;;;;;;4993778;28;20501;-71
2021/12/07 12:15:02;;;;;;;10.90;2.75;;;10.40;99.90;;;;;;4965557;28;20042;-76
2021/12/07 12:17:31;;;;;;;11.90;2.53;;;10.50;99.90;;;;;;4994039;28;20022;-76
2021/12/07 12:20:12;;;;;;;8.88;2.35;;;10.50;99.90;;;;;;4993727;28;20026;-76
2021/12/07 12:23:16;;;;;;;12.30;3.38;;;10.50;99.90;;;;;;4994020;28;20028;-73
2021/12/07 12:25:42;;;;;;;10.75;2.42;;;10.50;99.90;;;;;;4993712;28;20026;-75
2021/12/07 12:28:08;;;;;;;8.43;2.15;;;10.50;99.90;;;;;;4993196;28;20097;-74
2021/12/07 12:30:37;;;;;;;7.10;2.05;;;10.50;99.90;;;;;;4993609;28;20026;-74
2021/12/07 12:33:21;;;;;;;7.77;2.80;;;10.60;99.90;;;;;;4993616;28;20554;-73
2021/12/07 12:35:52;;;;;;;8.63;2.78;;;10.60;99.90;;;;;;4994161;28;20019;-74
2021/12/07 12:38:31;;;;;;;6.57;2.17;;;10.60;99.90;;;;;;4993842;28;20034;-75
2021/12/07 12:41:01;;;;;;;9.02;3.25;;;10.60;99.90;;;;;;4993494;28;20010;-76
2021/12/07 12:43:41;;;;;;;6.05;2.30;;;10.60;99.90;;;;;;4993832;28;20022;-75
2021/12/07 12:46:09;;;;;;;2.73;1.83;;;10.60;99.90;;;;;;4993756;28;20030;-74
2021/12/07 12:48:35;;;;;;;3.95;2.17;;;10.50;99.90;;;;;;4993482;28;20050;-76
2021/12/07 12:51:01;;;;;;;4.28;1.30;;;10.50;99.90;;;;;;4993955;28;20485;-74
2021/12/07 12:53:34;;;;;;;5.20;1.85;;;10.60;99.90;;;;;;4993723;28;20026;-74
2021/12/07 12:56:30;;;;;;;7.95;2.05;;;10.60;99.90;;;;;;4993373;28;20026;-76
2021/12/07 12:59:01;;;;;;;6.28;2.97;;;10.60;99.90;;;;;;4995231;28;20023;-74
2021/12/07 13:01:28;;;;;;;4.95;1.35;;;10.60;99.90;;;;;;4997579;28;20030;-75
2021/12/07 13:04:14;;;;;;;4.97;2.30;;;10.70;99.90;;;;;;4996885;28;20018;-74
2021/12/07 13:06:48;;;;;;;4.30;2.22;;;10.70;99.90;;;;;;4996776;28;20030;-74
2021/12/07 13:09:19;;;;;;;5.43;2.78;;;10.70;99.90;;;;;;4997426;28;20484;-75
2021/12/07 13:12:08;;;;;;;4.15;1.80;;;10.70;99.90;;;;;;4996751;28;20114;-72
2021/12/07 13:14:51;;;;;;;2.85;1.60;;;10.70;99.90;;;;;;4978984;28;20027;-73
2021/12/07 13:17:22;;;;;;;5.32;1.65;;;10.70;99.90;;;;;;4996987;28;20031;-76
2021/12/07 13:20:03;;;;;;;6.22;1.80;;;10.70;99.90;;;;;;4996630;28;20036;-76
2021/12/07 13:22:54;;;;;;;5.28;1.95;;;10.80;99.90;;;;;;4996596;28;20498;-73
2021/12/07 13:25:23;;;;;;;4.13;1.60;;;10.80;99.90;;;;;;4996818;28;20033;-73
2021/12/07 13:28:11;;;;;;;2.42;1.40;;;10.80;99.90;;;;;;4996118;28;20050;-74
2021/12/07 13:30:37;;;;;;;5.78;2.35;;;10.80;99.90;;;;;;4996482;28;20122;-75
2021/12/07 13:33:18;;;;;;;15.45;12.77;;;10.80;99.90;;;;;;4978913;28;20487;-74
2021/12/07 13:35:45;;;;;;;15.95;11.68;;;10.80;99.90;;;;;;4996588;28;20037;-74
2021/12/07 13:38:22;;;;;;;16.70;12.82;;;10.80;99.90;;;;;;4978757;28;20030;-74
2021/12/07 13:40:51;;;;;;;12.48;10.55;;;10.80;99.90;;;;;;4996765;28;20030;-75
2021/12/07 13:43:36;;;;;;;18.00;15.85;;;10.80;99.90;;;;;;4996752;28;20026;-76
2021/12/07 13:46:09;;;;;;;10.57;7.97;;;10.90;99.90;;;;;;4996605;28;20528;-76
2021/12/07 13:48:35;;;;;;;8.57;5.72;;;10.90;99.90;;;;;;4996073;28;20022;-74
2021/12/07 13:51:01;;;;;;;5.03;4.07;;;10.90;99.90;;;;;;4996272;28;20543;-74
2021/12/07 13:53:27;;;;;;;7.60;6.32;;;10.90;99.90;;;;;;4995999;28;20026;-74
2021/12/07 13:55:52;;;;;;;7.45;4.50;;;10.90;99.90;;;;;;4996195;28;20410;-73
2021/12/07 13:58:18;;;;;;;4.88;2.60;;;10.90;99.90;;;;;;4995896;28;20022;-76
2021/12/07 14:00:44;;;;;;;8.30;5.07;;;10.90;99.90;;;;;;4995850;28;20027;-78
2021/12/07 14:03:13;;;;;;;4.90;3.13;;;11.00;99.90;;;;;;4995764;28;20031;-74
2021/12/07 14:05:42;;;;;;;3.90;2.03;;;11.00;99.90;;;;;;4995794;28;20022;-74
2021/12/07 14:08:11;;;;;;;4.95;3.38;;;11.00;99.90;;;;;;4995690;28;20038;-77
2021/12/07 14:10:47;;;;;;;3.65;2.22;;;11.00;99.90;;;;;;4995132;28;20029;-77
2021/12/07 14:13:15;;;;;;;3.50;2.70;;;11.10;99.90;;;;;;4996254;28;20101;-77
2021/12/07 14:15:43;;;;;;;2.38;1.70;;;11.10;99.90;;;;;;4995593;28;20016;-73
2021/12/07 14:18:18;;;;;;;3.33;2.60;;;11.20;99.90;;;;;;4995831;28;20034;-74
2021/12/07 14:20:49;;;;;;;8.68;6.38;;;11.30;99.90;;;;;;4995791;28;20106;-76
2021/12/07 14:23:29;;;;;;;3.22;1.20;;;11.30;99.90;;;;;;4995628;28;20037;-74
2021/12/07 14:26:06;;;;;;;10.02;1.77;;;11.30;99.90;;;;;;4995301;28;20018;-75
2021/12/07 14:28:35;;;;;;;7.47;1.83;;;11.00;99.90;;;;;;4995916;28;20041;-73
2021/12/07 14:31:06;;;;;;;9.55;3.13;;;10.80;99.90;;;;;;4995301;28;20081;-75
2021/12/07 14:33:40;;;;;;;15.05;4.35;;;10.70;99.90;;;;;;4995262;28;20113;-73
2021/12/07 14:36:07;;;;;;;16.65;4.50;;;10.60;99.90;;;;;;4995477;28;20471;-76
2021/12/07 14:38:34;;;;;;;13.68;4.70;;;10.60;99.90;;;;;;4995059;28;20486;-75
2021/12/07 14:41:03;;;;;;;14.38;5.00;;;10.60;99.90;;;;;;4995014;28;20497;-77
2021/12/07 14:43:29;;;;;;;14.82;5.60;;;10.60;99.90;;;;;;4995059;28;20052;-76
2021/12/07 14:45:59;;;;;;;20.02;6.20;;;10.60;99.90;;;;;;4994904;28;20538;-73
2021/12/07 14:48:25;;;;;;;;;;;10.60;99.90;;;;;;4995449;28;20026;-73
2021/12/07 14:50:50;;;;;;;17.02;5.80;;;10.60;99.90;;;;;;4994965;28;19905;-74
2021/12/07 14:53:30;;;;;;;9.35;4.40;;;10.60;99.90;;;;;;4995379;28;20035;-74
2021/12/07 14:55:56;;;;;;;15.00;5.95;;;10.60;99.90;;;;;;4994841;28;20062;-75